createdAt,value
2022-11-05T00:02:33.524Z,1.90
2022-11-05T00:05:19.148Z,2.07
2022-11-05T00:08:08.089Z,2.67
2022-11-05T00:10:39.506Z,2.60
2022-11-05T00:13:27.351Z,2.53
2022-11-05T00:16:13.065Z,2.80
2022-11-05T00:18:41.000Z,2.90
2022-11-05T00:21:29.970Z,3.47
2022-11-05T00:24:24.436Z,5.37
2022-11-05T00:26:53.772Z,7.03
2022-11-05T00:29:21.665Z,4.77
2022-11-05T00:31:49.658Z,3.53
2022-11-05T00:34:17.547Z,3.40
2022-11-05T00:36:45.494Z,2.90
2022-11-05T00:39:13.403Z,3.27
2022-11-05T00:41:41.237Z,3.20
2022-11-05T00:44:27.994Z,3.30
2022-11-05T00:47:15.894Z,5.23
2022-11-05T00:49:42.955Z,13.13
2022-11-05T00:52:28.480Z,12.07
2022-11-05T00:54:56.435Z,7.20
2022-11-05T00:57:24.266Z,5.40
2022-11-05T00:59:53.542Z,3.40
2022-11-05T01:02:21.512Z,2.20
2022-11-05T01:04:49.428Z,2.20
2022-11-05T01:07:17.374Z,2.53
2022-11-05T01:09:45.177Z,2.27
2022-11-05T01:12:13.123Z,2.37
2022-11-05T01:14:40.987Z,3.10
2022-11-05T01:17:10.284Z,3.00
2022-11-05T01:19:39.333Z,2.20
2022-11-05T01:22:07.193Z,2.80
2022-11-05T01:24:35.014Z,2.57
2022-11-05T01:27:02.840Z,2.27
2022-11-05T01:29:30.937Z,2.50
2022-11-05T01:31:58.879Z,2.53
2022-11-05T01:34:28.180Z,2.50
2022-11-05T01:36:56.074Z,2.70
2022-11-05T01:39:23.993Z,3.10
2022-11-05T01:41:51.970Z,2.80
2022-11-05T01:44:53.170Z,3.00
2022-11-05T01:47:37.562Z,2.80
2022-11-05T01:50:21.446Z,2.73
2022-11-05T01:52:50.914Z,3.13
2022-11-05T01:55:24.362Z,2.77
2022-11-05T01:57:55.314Z,2.43
2022-11-05T02:00:23.216Z,2.40
2022-11-05T02:02:51.550Z,2.60
2022-11-05T02:05:20.938Z,2.47
2022-11-05T02:07:49.917Z,2.40
2022-11-05T02:10:19.056Z,2.30
2022-11-05T02:12:48.503Z,2.10
2022-11-05T02:15:18.226Z,2.10
2022-11-05T02:17:56.331Z,2.63
2022-11-05T02:20:33.946Z,2.40
2022-11-05T02:23:56.982Z,2.40
2022-11-05T02:26:58.205Z,2.10
2022-11-05T02:30:07.733Z,2.43
2022-11-05T02:33:08.717Z,2.40
2022-11-05T02:35:57.574Z,2.07
2022-11-05T02:38:37.341Z,2.10
2022-11-05T02:41:09.688Z,2.30
2022-11-05T02:43:46.569Z,2.53
2022-11-05T02:46:26.659Z,2.57
2022-11-05T02:49:03.955Z,2.53
2022-11-05T02:51:40.098Z,2.33
2022-11-05T02:54:13.662Z,2.20
2022-11-05T02:56:45.149Z,2.17
2022-11-05T02:59:13.034Z,2.00
2022-11-05T03:01:42.356Z,1.93
2022-11-05T03:04:14.546Z,2.20
2022-11-05T03:07:09.184Z,2.20
2022-11-05T03:10:01.922Z,2.10
2022-11-05T03:12:37.757Z,2.17
2022-11-05T03:15:16.654Z,2.30
2022-11-05T03:17:54.566Z,2.10
2022-11-05T03:20:26.780Z,2.27
2022-11-05T03:23:03.267Z,2.40
2022-11-05T03:25:33.217Z,2.10
2022-11-05T03:28:06.457Z,2.10
2022-11-05T03:30:36.301Z,2.00
2022-11-05T03:33:09.727Z,2.50
2022-11-05T03:35:40.968Z,2.27
2022-11-05T03:38:14.942Z,2.10
2022-11-05T03:40:46.157Z,2.57
2022-11-05T03:43:15.076Z,2.40
2022-11-05T03:45:48.467Z,2.00
2022-11-05T03:48:18.773Z,2.40
2022-11-05T03:50:54.211Z,2.13
2022-11-05T03:53:27.169Z,2.30
2022-11-05T03:55:59.776Z,2.10
2022-11-05T03:58:28.128Z,2.10
2022-11-05T04:00:56.213Z,2.10
2022-11-05T04:03:24.153Z,2.30
2022-11-05T04:06:06.371Z,2.03
2022-11-05T04:08:53.074Z,2.13
2022-11-05T04:11:38.527Z,2.30
2022-11-05T04:14:06.387Z,2.50
2022-11-05T04:16:52.075Z,2.37
2022-11-05T04:19:41.433Z,2.23
2022-11-05T04:22:26.827Z,2.33
2022-11-05T04:24:56.146Z,2.80
2022-11-05T04:27:24.011Z,2.80
2022-11-05T04:30:09.568Z,2.63
2022-11-05T04:32:37.391Z,2.83
2022-11-05T04:35:05.628Z,3.13
2022-11-05T04:37:33.531Z,3.23
2022-11-05T04:40:02.774Z,3.23
2022-11-05T04:42:30.621Z,3.03
2022-11-05T04:44:58.536Z,3.20
2022-11-05T04:47:26.348Z,2.80
2022-11-05T04:49:54.734Z,3.53
2022-11-05T04:52:22.707Z,3.60
2022-11-05T04:54:50.587Z,3.67
2022-11-05T04:57:19.737Z,3.43
2022-11-05T04:59:49.535Z,3.97
2022-11-05T05:02:17.435Z,3.20
2022-11-05T05:04:45.866Z,3.23
2022-11-05T05:07:13.762Z,3.17
2022-11-05T05:09:41.572Z,4.07
2022-11-05T05:12:09.659Z,3.80
2022-11-05T05:14:39.005Z,4.27
2022-11-05T05:17:06.891Z,4.60
2022-11-05T05:19:55.318Z,5.33
2022-11-05T05:22:22.194Z,5.33
2022-11-05T05:24:52.794Z,5.60
2022-11-05T05:27:22.734Z,5.10
2022-11-05T05:29:51.941Z,5.60
2022-11-05T05:32:19.799Z,6.17
2022-11-05T05:34:47.700Z,6.07
2022-11-05T05:37:15.688Z,7.43
2022-11-05T05:39:44.553Z,7.73
2022-11-05T05:42:12.656Z,7.60
2022-11-05T05:44:40.468Z,8.50
2022-11-05T05:47:09.686Z,8.40
2022-11-05T05:49:37.644Z,8.17
2022-11-05T05:52:06.104Z,9.00
2022-11-05T05:54:38.322Z,10.17
2022-11-05T05:57:09.262Z,9.97
2022-11-05T05:59:37.140Z,10.00
2022-11-05T06:02:05.059Z,10.10
2022-11-05T06:04:34.362Z,10.67
2022-11-05T06:07:02.288Z,11.43
2022-11-05T06:09:30.249Z,12.73
2022-11-05T06:11:58.083Z,11.87
2022-11-05T06:14:25.963Z,11.70
2022-11-05T06:16:53.874Z,12.77
2022-11-05T06:19:21.771Z,12.83
2022-11-05T06:21:50.964Z,12.90
2022-11-05T06:24:18.928Z,13.47
2022-11-05T06:26:47.028Z,13.13
2022-11-05T06:29:14.952Z,14.37
2022-11-05T06:31:42.850Z,13.33
2022-11-05T06:34:11.011Z,13.60
2022-11-05T06:36:38.931Z,14.90
2022-11-05T06:39:10.972Z,14.67
2022-11-05T06:42:03.833Z,15.13
2022-11-05T06:44:26.869Z,13.70
2022-11-05T06:46:54.836Z,15.13
2022-11-05T06:49:24.469Z,14.70
2022-11-05T06:51:52.399Z,14.53
2022-11-05T06:54:21.789Z,15.93
2022-11-05T06:56:49.680Z,14.70
2022-11-05T06:59:17.568Z,15.03
2022-11-05T07:01:45.620Z,15.17
2022-11-05T07:04:13.712Z,14.80
2022-11-05T07:06:41.622Z,14.67
2022-11-05T07:09:09.513Z,15.37
2022-11-05T07:11:38.782Z,14.93
2022-11-05T07:14:06.653Z,14.80
2022-11-05T07:16:34.563Z,15.60
2022-11-05T07:19:02.785Z,16.23
2022-11-05T07:21:30.677Z,15.63
2022-11-05T07:23:58.578Z,14.43
2022-11-05T07:26:31.831Z,13.83
2022-11-05T07:29:03.545Z,14.33
2022-11-05T07:31:31.417Z,13.53
2022-11-05T07:33:59.395Z,14.03
2022-11-05T07:36:27.459Z,14.30
2022-11-05T07:39:00.079Z,14.37
2022-11-05T07:41:29.239Z,13.60
2022-11-05T07:43:57.307Z,13.80
2022-11-05T07:46:26.567Z,13.47
2022-11-05T07:48:54.493Z,14.33
2022-11-05T07:51:22.968Z,13.73
2022-11-05T07:53:51.015Z,14.33
2022-11-05T07:56:19.007Z,14.40
2022-11-05T07:58:46.987Z,14.43
2022-11-05T08:01:15.249Z,13.83
2022-11-05T08:03:44.784Z,12.47
2022-11-05T08:06:12.710Z,12.73
2022-11-05T08:08:40.702Z,10.97
2022-11-05T08:11:10.539Z,11.17
2022-11-05T08:13:39.093Z,10.30
2022-11-05T08:16:08.101Z,10.03
2022-11-05T08:18:36.091Z,8.03
2022-11-05T08:21:07.090Z,6.67
2022-11-05T08:23:35.008Z,5.57
2022-11-05T08:26:04.734Z,5.27
2022-11-05T08:28:32.844Z,5.00
2022-11-05T08:31:00.849Z,6.70
2022-11-05T08:33:31.227Z,4.60
2022-11-05T08:36:03.563Z,5.60
2022-11-05T08:38:33.006Z,7.17
2022-11-05T08:41:01.170Z,6.37
2022-11-05T08:43:29.094Z,4.87
2022-11-05T08:45:57.093Z,5.30
2022-11-05T08:48:25.040Z,4.57
2022-11-05T08:50:53.122Z,4.77
2022-11-05T08:53:21.048Z,4.57
2022-11-05T08:55:51.393Z,4.93
2022-11-05T08:58:20.817Z,5.13
2022-11-05T09:00:50.390Z,5.70
2022-11-05T09:03:18.664Z,5.13
2022-11-05T09:05:46.913Z,4.47
2022-11-05T09:08:17.420Z,5.73
2022-11-05T09:10:46.701Z,6.97
2022-11-05T09:13:19.298Z,5.70
2022-11-05T09:15:48.535Z,6.10
2022-11-05T09:18:17.773Z,5.77
2022-11-05T09:20:45.961Z,4.87
2022-11-05T09:23:15.818Z,5.03
2022-11-05T09:25:43.967Z,4.97
2022-11-05T09:28:16.815Z,5.27
2022-11-05T09:30:48.373Z,5.80
2022-11-05T09:33:17.408Z,5.37
2022-11-05T09:35:45.630Z,5.43
2022-11-05T09:38:14.198Z,6.73
2022-11-05T09:40:45.684Z,6.90
2022-11-05T09:43:20.150Z,6.83
2022-11-05T09:45:53.182Z,7.70
2022-11-05T09:48:24.818Z,10.60
2022-11-05T09:50:54.839Z,10.80
2022-11-05T09:53:25.400Z,8.43
2022-11-05T09:55:56.302Z,9.03
2022-11-05T09:58:38.783Z,10.30
2022-11-05T10:01:14.277Z,10.87
2022-11-05T10:03:46.594Z,9.47
2022-11-05T10:06:20.782Z,10.07
2022-11-05T10:08:51.995Z,10.40
2022-11-05T10:11:24.933Z,10.00
2022-11-05T10:13:57.987Z,9.47
2022-11-05T10:16:31.814Z,9.30
2022-11-05T10:19:06.094Z,8.67
2022-11-05T10:22:04.169Z,10.63
2022-11-05T10:24:22.883Z,8.27
2022-11-05T10:26:53.946Z,7.80
2022-11-05T10:29:27.483Z,8.97
2022-11-05T10:31:58.176Z,8.67
2022-11-05T10:34:30.787Z,8.23
2022-11-05T10:36:58.803Z,8.53
2022-11-05T10:39:28.759Z,8.43
2022-11-05T10:42:27.069Z,8.30
2022-11-05T10:45:01.090Z,8.13
2022-11-05T10:47:51.600Z,7.60
2022-11-05T10:50:21.601Z,8.70
2022-11-05T10:52:58.909Z,8.20
2022-11-05T10:55:30.124Z,7.43
2022-11-05T10:58:10.317Z,6.67
2022-11-05T11:00:38.770Z,7.13
2022-11-05T11:03:34.532Z,6.00
2022-11-05T11:06:04.173Z,6.70
2022-11-05T11:08:35.806Z,6.40
2022-11-05T11:11:07.074Z,7.00
2022-11-05T11:13:52.316Z,6.17
2022-11-05T11:16:22.875Z,6.30
2022-11-05T11:18:56.694Z,6.27
2022-11-05T11:21:26.166Z,6.13
2022-11-05T11:23:58.753Z,6.27
2022-11-05T11:26:29.788Z,6.70
2022-11-05T11:29:00.322Z,7.07
2022-11-05T11:31:31.635Z,6.13
2022-11-05T11:34:04.512Z,6.93
2022-11-05T11:36:48.903Z,7.10
2022-11-05T11:39:20.639Z,7.30
2022-11-05T11:41:53.273Z,6.67
2022-11-05T11:44:27.054Z,6.97
2022-11-05T11:46:58.159Z,7.60
2022-11-05T11:49:41.569Z,7.00
2022-11-05T11:52:13.017Z,8.23
2022-11-05T11:54:41.171Z,7.70
2022-11-05T11:57:22.524Z,6.53
2022-11-05T12:03:12.505Z,6.73
2022-11-05T12:05:47.769Z,7.20
2022-11-05T12:08:37.189Z,7.33
2022-11-05T12:11:10.401Z,6.70
2022-11-05T12:14:11.109Z,5.93
2022-11-05T12:17:03.263Z,6.10
2022-11-05T12:19:45.784Z,6.13
2022-11-05T12:22:24.436Z,5.83
2022-11-05T12:25:06.734Z,5.70
2022-11-05T12:27:43.809Z,6.93
2022-11-05T12:30:15.544Z,7.23
2022-11-05T12:33:08.170Z,6.40
2022-11-05T12:35:49.024Z,5.20
2022-11-05T12:38:31.086Z,5.10
2022-11-05T12:41:16.580Z,5.00
2022-11-05T12:43:56.073Z,5.00
2022-11-05T12:46:30.146Z,4.90
2022-11-05T12:49:13.892Z,5.27
2022-11-05T12:51:55.760Z,5.50
2022-11-05T12:54:36.898Z,5.00
2022-11-05T12:57:05.288Z,5.03
2022-11-05T12:59:38.888Z,5.37
2022-11-05T13:02:17.924Z,5.97
2022-11-05T13:04:53.348Z,5.00
2022-11-05T13:07:25.534Z,5.30
2022-11-05T13:09:58.984Z,5.07
2022-11-05T13:12:30.843Z,5.30
2022-11-05T13:15:01.972Z,4.17
2022-11-05T13:17:34.164Z,3.93
2022-11-05T13:20:06.942Z,3.80
2022-11-05T13:22:38.419Z,4.00
2022-11-05T13:25:17.968Z,3.47
2022-11-05T13:27:53.465Z,3.60
2022-11-05T13:30:23.550Z,3.63
2022-11-05T13:32:58.110Z,3.57
2022-11-05T13:35:30.377Z,3.33
2022-11-05T13:38:22.948Z,3.60
2022-11-05T13:41:08.689Z,3.87
2022-11-05T13:44:03.898Z,4.00
2022-11-05T13:47:03.545Z,4.33
2022-11-05T13:50:07.509Z,4.70
2022-11-05T13:53:01.317Z,4.77
2022-11-05T13:55:43.563Z,5.53
2022-11-05T13:58:39.625Z,4.70
2022-11-05T14:01:17.463Z,4.63
2022-11-05T14:03:48.534Z,5.37
2022-11-05T14:06:25.900Z,4.67
2022-11-05T14:08:59.150Z,5.10
2022-11-05T14:11:30.098Z,4.43
2022-11-05T14:14:02.645Z,5.87
2022-11-05T14:16:48.140Z,4.83
2022-11-05T14:19:33.211Z,3.13
2022-11-05T14:22:21.436Z,4.23
2022-11-05T14:24:50.661Z,4.07
2022-11-05T14:27:34.142Z,3.90
2022-11-05T14:30:02.194Z,4.10
2022-11-05T14:32:44.647Z,4.60
2022-11-05T14:35:37.877Z,4.23
2022-11-05T14:38:07.675Z,4.00
2022-11-05T14:40:40.109Z,4.57
2022-11-05T14:43:19.403Z,5.40
2022-11-05T14:45:56.642Z,4.50
2022-11-05T14:48:31.466Z,4.23
2022-11-05T14:51:00.594Z,4.57
2022-11-05T14:53:34.688Z,4.40
2022-11-05T14:56:07.013Z,4.70
2022-11-05T14:58:36.906Z,4.70
2022-11-05T15:01:07.234Z,4.53
2022-11-05T15:04:12.005Z,4.30
2022-11-05T15:06:40.625Z,4.80
2022-11-05T15:09:21.922Z,4.57
2022-11-05T15:12:09.058Z,5.37
2022-11-05T15:14:48.017Z,5.80
2022-11-05T15:17:21.158Z,5.20
2022-11-05T15:19:49.952Z,4.70
2022-11-05T15:22:30.657Z,4.77
2022-11-05T15:24:59.679Z,4.73
2022-11-05T15:27:54.977Z,5.00
2022-11-05T15:30:24.783Z,5.47
2022-11-05T15:32:53.106Z,4.90
2022-11-05T15:35:27.618Z,4.97
2022-11-05T15:38:02.275Z,5.00
2022-11-05T15:40:33.215Z,5.57
2022-11-05T15:43:20.616Z,5.27
2022-11-05T15:46:05.998Z,5.30
2022-11-05T15:48:34.677Z,5.50
2022-11-05T15:51:02.923Z,5.10
2022-11-05T15:53:56.036Z,6.73
2022-11-05T15:56:26.968Z,5.77
2022-11-05T15:59:01.315Z,5.60
2022-11-05T16:01:31.966Z,4.80
2022-11-05T16:04:08.613Z,5.17
2022-11-05T16:06:39.751Z,5.10
2022-11-05T16:09:08.147Z,4.70
2022-11-05T16:11:36.070Z,4.93
2022-11-05T16:14:19.578Z,5.30
2022-11-05T16:16:47.826Z,5.43
2022-11-05T16:19:40.312Z,6.23
2022-11-05T16:22:09.686Z,5.30
2022-11-05T16:24:37.618Z,8.80
2022-11-05T16:27:06.114Z,10.07
2022-11-05T16:29:36.843Z,12.73
2022-11-05T16:32:07.249Z,14.10
2022-11-05T16:34:40.129Z,14.70
2022-11-05T16:37:12.248Z,9.57
2022-11-05T16:39:40.283Z,7.57
2022-11-05T16:42:39.028Z,7.73
2022-11-05T16:45:11.734Z,8.17
2022-11-05T16:47:39.665Z,8.47
2022-11-05T16:50:23.402Z,7.10
2022-11-05T16:52:52.005Z,7.40
2022-11-05T16:55:20.364Z,8.13
2022-11-05T16:57:51.836Z,6.80
2022-11-05T17:00:22.291Z,10.53
2022-11-05T17:02:50.401Z,12.63
2022-11-05T17:05:21.855Z,11.33
2022-11-05T17:07:49.926Z,8.90
2022-11-05T17:10:18.454Z,8.10
2022-11-05T17:12:47.240Z,11.73
2022-11-05T17:15:22.484Z,9.27
2022-11-05T17:17:50.803Z,14.03
2022-11-05T17:20:39.431Z,13.23
2022-11-05T17:23:09.609Z,9.40
2022-11-05T17:25:38.242Z,9.60
2022-11-05T17:28:07.190Z,7.03
2022-11-05T17:30:36.530Z,7.00
2022-11-05T17:33:04.591Z,7.10
2022-11-05T17:35:32.886Z,6.47
2022-11-05T17:38:00.959Z,6.23
2022-11-05T17:40:29.414Z,6.17
2022-11-05T17:42:57.329Z,6.90
2022-11-05T17:45:25.177Z,6.60
2022-11-05T17:47:54.748Z,7.17
2022-11-05T17:50:22.730Z,8.17
2022-11-05T17:52:50.717Z,6.37
2022-11-05T17:55:18.655Z,6.43
2022-11-05T17:57:48.228Z,6.63
2022-11-05T18:00:18.035Z,6.43
2022-11-05T18:02:48.347Z,6.27
2022-11-05T18:05:17.943Z,8.03
2022-11-05T18:07:46.948Z,7.37
2022-11-05T18:10:15.612Z,11.07
2022-11-05T18:12:44.004Z,10.67
2022-11-05T18:15:13.060Z,13.53
2022-11-05T18:17:40.981Z,9.33
2022-11-05T18:20:17.374Z,9.20
2022-11-05T18:22:51.154Z,11.93
2022-11-05T18:25:19.513Z,9.30
2022-11-05T18:27:47.342Z,8.40
2022-11-05T18:30:15.381Z,9.00
2022-11-05T18:32:43.544Z,8.73
2022-11-05T18:35:13.127Z,12.73
2022-11-05T18:37:41.712Z,10.87
2022-11-05T18:40:11.854Z,8.80
2022-11-05T18:42:39.896Z,7.60
2022-11-05T18:45:08.747Z,7.50
2022-11-05T18:47:37.026Z,7.57
2022-11-05T18:50:07.060Z,7.30
2022-11-05T18:52:35.503Z,7.60
2022-11-05T18:55:03.387Z,7.93
2022-11-05T18:57:33.987Z,7.27
2022-11-05T19:00:02.030Z,8.50
2022-11-05T19:02:30.064Z,7.30
2022-11-05T19:05:27.460Z,7.23
2022-11-05T19:07:46.325Z,7.37
2022-11-05T19:10:14.283Z,7.70
2022-11-05T19:12:43.719Z,6.83
2022-11-05T19:15:12.023Z,8.03
2022-11-05T19:17:39.889Z,8.27
2022-11-05T19:20:09.539Z,7.50
2022-11-05T19:22:37.583Z,8.00
2022-11-05T19:25:06.466Z,7.23
2022-11-05T19:27:36.166Z,7.33
2022-11-05T19:30:06.113Z,7.03
2022-11-05T19:32:34.001Z,6.87
2022-11-05T19:35:01.864Z,7.53
2022-11-05T19:37:29.733Z,6.93
2022-11-05T19:39:57.770Z,8.17
2022-11-05T19:42:25.706Z,7.83
2022-11-05T19:44:53.551Z,6.73
2022-11-05T19:47:22.806Z,7.20
2022-11-05T19:49:50.777Z,7.57
2022-11-05T19:52:18.780Z,7.40
2022-11-05T19:54:46.963Z,7.23
2022-11-05T19:57:14.829Z,7.07
2022-11-05T19:59:42.832Z,7.37
2022-11-05T20:02:16.016Z,8.47
2022-11-05T20:04:45.792Z,8.60
2022-11-05T20:07:13.697Z,8.10
2022-11-05T20:09:41.756Z,7.20
2022-11-05T20:12:09.660Z,6.90
2022-11-05T20:14:37.829Z,7.63
2022-11-05T20:17:05.846Z,7.67
2022-11-05T20:19:35.057Z,7.60
2022-11-05T20:22:04.512Z,7.77
2022-11-05T20:24:32.496Z,6.83
2022-11-05T20:27:00.350Z,7.53
2022-11-05T20:29:35.063Z,7.30
2022-11-05T20:32:04.804Z,7.63
2022-11-05T20:34:33.810Z,7.13
2022-11-05T20:37:02.310Z,7.80
2022-11-05T20:39:31.828Z,7.33
2022-11-05T20:42:00.398Z,8.43
2022-11-05T20:44:28.809Z,6.97
2022-11-05T20:46:56.926Z,6.93
2022-11-05T20:49:25.803Z,8.20
2022-11-05T20:51:54.016Z,7.87
2022-11-05T20:54:22.094Z,7.23
2022-11-05T20:56:51.690Z,7.67
2022-11-05T20:59:19.783Z,7.13
2022-11-05T21:01:49.996Z,6.70
2022-11-05T21:04:18.364Z,7.37
2022-11-05T21:06:46.296Z,8.40
2022-11-05T21:09:14.175Z,8.10
2022-11-05T21:11:59.590Z,8.23
2022-11-05T21:14:28.911Z,9.10
2022-11-05T21:16:57.818Z,7.87
2022-11-05T21:19:25.762Z,7.70
2022-11-05T21:21:53.657Z,6.63
2022-11-05T21:24:21.699Z,6.93
2022-11-05T21:26:50.145Z,7.00
2022-11-05T21:29:19.843Z,7.90
2022-11-05T21:31:49.229Z,8.30
2022-11-05T21:34:17.865Z,8.93
2022-11-05T21:36:47.015Z,9.37
2022-11-05T21:39:15.372Z,8.40
2022-11-05T21:41:43.518Z,9.17
2022-11-05T21:44:11.521Z,7.97
2022-11-05T21:46:39.405Z,7.63
2022-11-05T21:49:09.318Z,6.87
2022-11-05T21:51:54.725Z,7.77
2022-11-05T21:54:40.044Z,6.70
2022-11-05T21:57:31.399Z,7.07
2022-11-05T22:00:00.497Z,6.00
2022-11-05T22:02:29.331Z,6.23
2022-11-05T22:04:59.977Z,6.23
2022-11-05T22:07:30.522Z,6.50
2022-11-05T22:09:58.662Z,6.83
2022-11-05T22:12:26.863Z,6.97
2022-11-05T22:14:54.996Z,6.90
2022-11-05T22:17:22.906Z,6.80
2022-11-05T22:19:50.871Z,6.83
2022-11-05T22:22:20.213Z,7.50
2022-11-05T22:24:48.148Z,7.60
2022-11-05T22:27:20.460Z,7.10
2022-11-05T22:29:48.833Z,7.90
2022-11-05T22:32:17.444Z,7.80
2022-11-05T22:34:45.299Z,7.70
2022-11-05T22:37:13.992Z,7.07
2022-11-05T22:39:43.252Z,7.80
2022-11-05T22:42:11.105Z,7.43
2022-11-05T22:44:39.168Z,8.07
2022-11-05T22:47:07.509Z,7.93
2022-11-05T22:49:35.862Z,8.17
2022-11-05T22:52:03.864Z,8.50
2022-11-05T22:54:37.938Z,8.30
2022-11-05T22:57:08.581Z,7.97
2022-11-05T22:59:36.496Z,8.80
2022-11-05T23:02:09.598Z,8.00
2022-11-05T23:04:38.388Z,8.40
2022-11-05T23:07:32.203Z,9.13
2022-11-05T23:10:17.799Z,8.50
2022-11-05T23:12:47.007Z,7.97
2022-11-05T23:15:35.204Z,8.13
2022-11-05T23:18:20.851Z,8.03
2022-11-05T23:21:06.292Z,7.63
2022-11-05T23:23:51.912Z,8.13
2022-11-05T23:26:37.504Z,8.10
2022-11-05T23:29:06.701Z,7.77
2022-11-05T23:31:52.276Z,7.93
2022-11-05T23:34:20.147Z,7.87
2022-11-05T23:37:05.871Z,7.80
2022-11-05T23:39:38.217Z,8.07
2022-11-05T23:42:27.404Z,8.17
2022-11-05T23:45:15.077Z,8.57
2022-11-05T23:48:00.478Z,8.20
2022-11-05T23:50:28.526Z,7.10
2022-11-05T23:52:56.479Z,8.03
2022-11-05T23:55:25.214Z,8.30
2022-11-05T23:57:53.162Z,7.53
